Time;durP1;ratioP1;P1;durP2;ratioP2;P2;SDS_P1;SDS_P2;PMS_P1;PMS_P2;Temp;Humidity;BMP_temperature;BMP_pressure;BME280_temperature;BME280_humidity;BME280_pressure;Samples;Min_cycle;Max_cycle;Signal;HPM_P1;HPM_P2
2023/06/15 00:00:12;;;;;;;;;;;25.40;44.80;;;;;;4918227;29;19946;-89
2023/06/15 00:02:37;;;;;;;;;;;25.30;44.90;;;;;;4918656;29;19972;-89
2023/06/15 00:05:03;;;;;;;;;;;25.30;44.90;;;;;;4917923;29;20100;-89
2023/06/15 00:07:29;;;;;;;;;;;25.30;44.90;;;;;;4919731;29;19912;-89
2023/06/15 00:09:54;;;;;;;;;;;25.30;44.90;;;;;;4903905;29;19922;-89
2023/06/15 00:12:20;;;;;;;;;;;25.20;44.90;;;;;;4907481;29;19919;-89
2023/06/15 00:14:46;;;;;;;;;;;25.30;45.00;;;;;;4919118;29;19911;-89
2023/06/15 00:17:12;;;;;;;;;;;25.20;45.00;;;;;;4920250;29;19922;-89
2023/06/15 00:19:38;;;;;;;;;;;25.20;45.00;;;;;;4919469;29;19911;-89
2023/06/15 00:22:04;;;;;;;;;;;25.20;45.00;;;;;;4919434;29;20114;-89
2023/06/15 00:24:30;;;;;;;;;;;25.20;45.00;;;;;;4921557;29;19929;-89
2023/06/15 00:26:56;;;;;;;;;;;25.20;45.00;;;;;;4922781;29;19911;-89
2023/06/15 00:29:22;;;;;;;;;;;25.20;45.00;;;;;;4918415;29;19911;-89
2023/06/15 00:31:48;;;;;;;;;;;25.20;45.10;;;;;;4927393;29;20011;-89
2023/06/15 00:34:13;;;;;;;;;;;25.20;45.10;;;;;;4919196;29;19922;-89
2023/06/15 00:36:39;;;;;;;;;;;25.10;45.10;;;;;;4904242;29;19911;-89
2023/06/15 00:39:05;;;;;;;;;;;25.10;45.10;;;;;;4918345;29;19915;-89
2023/06/15 00:41:39;;;;;;;;;;;25.10;45.10;;;;;;4904238;29;20098;-89
2023/06/15 00:44:04;;;;;;;;;;;25.10;45.10;;;;;;4908567;29;19950;-89
2023/06/15 00:46:31;;;;;;;;;;;25.10;45.20;;;;;;4850315;29;19911;-89
2023/06/15 00:48:56;;;;;;;;;;;25.10;45.20;;;;;;4871815;29;19911;-89
2023/06/15 00:51:22;;;;;;;;;;;25.10;45.20;;;;;;4916600;29;19922;-89
2023/06/15 00:53:48;;;;;;;;;;;25.10;45.20;;;;;;4904765;29;19912;-89
2023/06/15 00:56:17;;;;;;;;;;;25.10;45.30;;;;;;4916701;29;20108;-89
2023/06/15 00:58:43;;;;;;;;;;;25.10;45.30;;;;;;4904460;29;19946;-89
2023/06/15 01:01:08;;;;;;;;;;;25.00;45.30;;;;;;4916829;29;20006;-89
2023/06/15 01:03:35;;;;;;;;;;;25.00;45.30;;;;;;4912199;29;20001;-89
2023/06/15 01:06:10;;;;;;;;;;;25.00;45.30;;;;;;4917066;29;20358;-89
2023/06/15 01:08:37;;;;;;;;;;;25.00;45.40;;;;;;4916291;29;19994;-89
2023/06/15 01:11:03;;;;;;;;;;;24.90;45.30;;;;;;4895577;29;20193;-89
2023/06/15 01:13:29;;;;;;;;;;;24.90;45.30;;;;;;4908674;29;19922;-89
2023/06/15 01:15:56;;;;;;;;;;;24.90;45.40;;;;;;4916218;29;19915;-89
2023/06/15 01:18:24;;;;;;;;;;;24.90;45.50;;;;;;4924956;29;19911;-89
2023/06/15 01:20:53;;;;;;;;;;;24.90;45.40;;;;;;4903436;29;19912;-89
2023/06/15 01:23:25;;;;;;;;;;;24.90;45.50;;;;;;4907428;29;19915;-89
2023/06/15 01:25:53;;;;;;;;;;;24.90;45.50;;;;;;4899424;29;20307;-89
2023/06/15 01:28:22;;;;;;;;;;;24.90;45.50;;;;;;4891093;29;19982;-89
2023/06/15 01:30:50;;;;;;;;;;;24.80;45.50;;;;;;4916706;29;20269;-89
2023/06/15 01:33:16;;;;;;;;;;;24.80;45.50;;;;;;4917620;29;19911;-89
2023/06/15 01:35:42;;;;;;;;;;;24.80;45.60;;;;;;4917865;29;19911;-89
2023/06/15 01:38:07;;;;;;;;;;;24.80;45.60;;;;;;4917984;29;19919;-89
2023/06/15 01:40:36;;;;;;;;;;;24.80;45.60;;;;;;4913048;29;19911;-89
2023/06/15 01:43:02;;;;;;;;;;;24.80;45.60;;;;;;4917660;29;20002;-89
2023/06/15 01:45:29;;;;;;;;;;;24.70;45.60;;;;;;4904203;29;20255;-89
2023/06/15 01:47:55;;;;;;;;;;;24.70;45.70;;;;;;4918038;29;20181;-89
2023/06/15 01:50:21;;;;;;;;;;;24.70;45.70;;;;;;4905900;29;20382;-89
2023/06/15 01:52:46;;;;;;;;;;;24.70;45.70;;;;;;4917785;29;19910;-89
2023/06/15 01:55:12;;;;;;;;;;;24.60;45.70;;;;;;4904921;29;19919;-89
2023/06/15 01:57:39;;;;;;;;;;;24.70;45.80;;;;;;4918583;29;19910;-89
2023/06/15 02:00:05;;;;;;;;;;;24.70;45.80;;;;;;4922499;29;19934;-89
2023/06/15 02:02:31;;;;;;;;;;;24.60;45.80;;;;;;4899773;29;20404;-89
2023/06/15 02:04:57;;;;;;;;;;;24.60;45.80;;;;;;4908577;29;19918;-89
2023/06/15 02:07:23;;;;;;;;;;;24.60;45.80;;;;;;4902430;29;19912;-89
2023/06/15 02:09:48;;;;;;;;;;;24.60;45.90;;;;;;4906556;29;20407;-89
2023/06/15 02:12:14;;;;;;;;;;;24.60;45.90;;;;;;4898647;29;19922;-89
2023/06/15 02:14:40;;;;;;;;;;;24.60;45.90;;;;;;4904447;29;19938;-89
2023/06/15 02:17:06;;;;;;;;;;;24.60;45.90;;;;;;4915847;29;19946;-88
2023/06/15 02:19:31;;;;;;;;;;;24.60;45.90;;;;;;4901540;29;19911;-89
2023/06/15 02:21:57;;;;;;;;;;;24.60;45.90;;;;;;4916195;29;19911;-89
2023/06/15 02:24:23;;;;;;;;;;;24.50;45.90;;;;;;4917155;29;19922;-89
2023/06/15 02:26:49;;;;;;;;;;;24.50;45.90;;;;;;4916751;29;19911;-89
2023/06/15 02:29:14;;;;;;;;;;;24.50;45.90;;;;;;4917315;29;19919;-89
2023/06/15 02:31:40;;;;;;;;;;;24.50;46.00;;;;;;4904682;29;19912;-89
2023/06/15 02:34:06;;;;;;;;;;;24.50;46.00;;;;;;4917200;29;19918;-89
2023/06/15 02:36:34;;;;;;;;;;;24.50;46.00;;;;;;4916348;29;19921;-89
2023/06/15 02:39:00;;;;;;;;;;;24.50;46.00;;;;;;4916741;29;20307;-89
2023/06/15 02:41:26;;;;;;;;;;;24.50;46.00;;;;;;4916011;29;19954;-89
2023/06/15 02:43:52;;;;;;;;;;;24.40;46.00;;;;;;4901001;29;19919;-89
2023/06/15 02:46:18;;;;;;;;;;;24.50;46.10;;;;;;4910636;29;19935;-89
2023/06/15 02:48:44;;;;;;;;;;;24.40;46.10;;;;;;4912486;29;20001;-89
2023/06/15 02:51:10;;;;;;;;;;;24.40;46.30;;;;;;4917363;29;19911;-89
2023/06/15 02:53:35;;;;;;;;;;;24.30;46.30;;;;;;4917844;29;19966;-89
2023/06/15 02:56:02;;;;;;;;;;;24.30;46.30;;;;;;4916054;29;19976;-89
2023/06/15 02:58:32;;;;;;;;;;;24.30;46.30;;;;;;4916055;29;20003;-89
2023/06/15 03:01:04;;;;;;;;;;;24.30;46.40;;;;;;4912449;29;20256;-89
2023/06/15 03:03:30;;;;;;;;;;;24.30;46.30;;;;;;4906746;29;19923;-89
2023/06/15 03:05:56;;;;;;;;;;;24.30;46.30;;;;;;4897291;29;19931;-89
2023/06/15 03:08:31;;;;;;;;;;;24.30;46.30;;;;;;4922554;29;19911;-89
2023/06/15 03:10:57;;;;;;;;;;;24.30;46.40;;;;;;4915266;29;19939;-89
2023/06/15 03:13:22;;;;;;;;;;;24.30;46.40;;;;;;4919106;29;19919;-89
2023/06/15 03:15:49;;;;;;;;;;;24.30;46.40;;;;;;4900557;29;20311;-89
2023/06/15 03:18:15;;;;;;;;;;;24.20;46.40;;;;;;4911668;29;19919;-89
2023/06/15 03:20:43;;;;;;;;;;;24.20;46.30;;;;;;4915899;29;19991;-89
2023/06/15 03:23:10;;;;;;;;;;;24.20;46.40;;;;;;4903346;29;20296;-89
2023/06/15 03:25:36;;;;;;;;;;;24.20;46.80;;;;;;4929050;29;19915;-89
2023/06/15 03:28:02;;;;;;;;;;;24.20;46.40;;;;;;4905710;29;19991;-89
2023/06/15 03:30:28;;;;;;;;;;;24.20;46.40;;;;;;4930931;29;19911;-89
2023/06/15 03:32:54;;;;;;;;;;;24.10;46.40;;;;;;4925041;29;20277;-89
2023/06/15 03:35:20;;;;;;;;;;;24.10;46.40;;;;;;4904044;29;20343;-89
2023/06/15 03:37:47;;;;;;;;;;;24.10;46.40;;;;;;4906901;29;20125;-89
2023/06/15 03:40:13;;;;;;;;;;;24.10;46.40;;;;;;4917673;29;19922;-89
2023/06/15 03:42:38;;;;;;;;;;;24.10;46.40;;;;;;4917085;29;19919;-89
2023/06/15 03:45:05;;;;;;;;;;;24.10;46.40;;;;;;4917685;29;19978;-89
2023/06/15 03:47:32;;;;;;;;;;;24.00;46.40;;;;;;4918170;29;19911;-89
2023/06/15 03:49:58;;;;;;;;;;;24.00;46.40;;;;;;4911586;29;19938;-88
2023/06/15 03:52:25;;;;;;;;;;;24.00;46.30;;;;;;4918056;29;20057;-89
2023/06/15 03:54:51;;;;;;;;;;;24.00;46.40;;;;;;4917989;29;20031;-89
2023/06/15 03:57:16;;;;;;;;;;;24.00;46.40;;;;;;4918705;29;19911;-89
2023/06/15 03:59:42;;;;;;;;;;;24.00;46.30;;;;;;4916343;29;19911;-89
2023/06/15 04:02:08;;;;;;;;;;;24.00;46.30;;;;;;4901436;29;19977;-89
2023/06/15 04:04:33;;;;;;;;;;;24.00;46.30;;;;;;4916524;29;20252;-89
2023/06/15 04:06:59;;;;;;;;;;;24.00;46.40;;;;;;4896705;29;20188;-89
2023/06/15 04:09:25;;;;;;;;;;;24.00;46.30;;;;;;4899586;29;20033;-89
2023/06/15 04:11:50;;;;;;;;;;;24.00;46.30;;;;;;4914265;29;20144;-89
2023/06/15 04:14:18;;;;;;;;;;;24.00;46.30;;;;;;4912680;29;20022;-89
2023/06/15 04:16:43;;;;;;;;;;;24.00;46.30;;;;;;4918643;29;19975;-89
2023/06/15 04:19:10;;;;;;;;;;;24.00;46.30;;;;;;4903528;29;20019;-89
2023/06/15 04:21:36;;;;;;;;;;;24.00;46.30;;;;;;4901825;29;19922;-89
2023/06/15 04:24:02;;;;;;;;;;;24.00;46.40;;;;;;4917497;29;20022;-89
2023/06/15 04:26:28;;;;;;;;;;;24.00;46.30;;;;;;4915876;29;20010;-89
2023/06/15 04:28:58;;;;;;;;;;;24.00;46.30;;;;;;4915501;29;19922;-89
2023/06/15 04:31:24;;;;;;;;;;;24.00;46.30;;;;;;4914686;29;19911;-89
2023/06/15 04:33:52;;;;;;;;;;;24.00;46.30;;;;;;4898344;29;19911;-89
2023/06/15 04:36:18;;;;;;;;;;;24.00;46.40;;;;;;4915342;29;20211;-89
2023/06/15 04:38:48;;;;;;;;;;;24.10;46.30;;;;;;4897644;29;19911;-89
2023/06/15 04:41:14;;;;;;;;;;;24.10;46.40;;;;;;4907564;29;19922;-89
2023/06/15 04:43:40;;;;;;;;;;;24.10;46.40;;;;;;4913416;29;19917;-89
2023/06/15 04:46:06;;;;;;;;;;;24.10;46.30;;;;;;4899606;29;20184;-89
2023/06/15 04:48:32;;;;;;;;;;;24.10;46.30;;;;;;4932299;29;19911;-89
2023/06/15 04:50:59;;;;;;;;;;;24.10;46.30;;;;;;4916026;29;20263;-89
2023/06/15 04:53:24;;;;;;;;;;;24.10;46.40;;;;;;4914597;29;19921;-89
2023/06/15 04:55:50;;;;;;;;;;;24.20;46.50;;;;;;4903699;29;19914;-89
2023/06/15 04:58:15;;;;;;;;;;;24.20;46.50;;;;;;4901399;29;20022;-89
2023/06/15 05:00:57;;;;;;;;;;;24.20;46.50;;;;;;4906182;29;19918;-89
2023/06/15 05:03:23;;;;;;;;;;;24.30;46.50;;;;;;4917978;29;19915;-90
2023/06/15 05:05:48;;;;;;;;;;;24.30;46.60;;;;;;4913902;29;19919;-90
2023/06/15 05:08:14;;;;;;;;;;;24.30;46.50;;;;;;4913041;29;19918;-90
2023/06/15 05:10:40;;;;;;;;;;;24.40;46.60;;;;;;4913427;29;19925;-90
2023/06/15 05:13:06;;;;;;;;;;;24.40;46.50;;;;;;4913695;29;19982;-90
2023/06/15 05:15:32;;;;;;;;;;;24.40;46.40;;;;;;4912063;29;19911;-89
2023/06/15 05:17:57;;;;;;;;;;;24.50;46.40;;;;;;4912354;29;20310;-90
2023/06/15 05:20:23;;;;;;;;;;;24.50;46.50;;;;;;4912577;29;19915;-90
2023/06/15 05:22:49;;;;;;;;;;;24.50;46.60;;;;;;4912250;29;19926;-90
2023/06/15 05:25:15;;;;;;;;;;;24.60;46.60;;;;;;4913138;29;19958;-90
2023/06/15 05:27:42;;;;;;;;;;;24.60;46.40;;;;;;4909549;29;19922;-90
2023/06/15 05:30:08;;;;;;;;;;;24.60;46.60;;;;;;4910393;29;19923;-90
2023/06/15 05:32:37;;;;;;;;;;;24.70;46.60;;;;;;4910182;29;19911;-90
2023/06/15 05:35:07;;;;;;;;;;;24.70;46.70;;;;;;4908076;29;20071;-90
2023/06/15 05:37:35;;;;;;;;;;;24.80;46.70;;;;;;4907754;29;20009;-90
2023/06/15 05:40:02;;;;;;;;;;;24.80;46.60;;;;;;4908647;29;19912;-90
2023/06/15 05:42:28;;;;;;;;;;;24.90;46.50;;;;;;4908300;29;19942;-90
2023/06/15 05:44:53;;;;;;;;;;;24.90;46.40;;;;;;4909273;29;20188;-90
2023/06/15 05:47:19;;;;;;;;;;;25.00;46.40;;;;;;4912060;29;20272;-90
2023/06/15 05:49:45;;;;;;;;;;;25.10;46.30;;;;;;4909009;29;19911;-90
2023/06/15 05:52:11;;;;;;;;;;;25.10;46.40;;;;;;4908839;29;19922;-90
2023/06/15 05:54:36;;;;;;;;;;;25.20;46.30;;;;;;4909820;29;19918;-90
2023/06/15 05:57:03;;;;;;;;;;;25.20;46.30;;;;;;4909750;29;19912;-90
2023/06/15 05:59:28;;;;;;;;;;;25.20;46.30;;;;;;4908545;29;19947;-89
2023/06/15 06:01:54;;;;;;;;;;;25.40;46.50;;;;;;4907767;29;20267;-90
2023/06/15 06:04:20;;;;;;;;;;;25.40;46.30;;;;;;4910266;29;19915;-90
2023/06/15 06:06:46;;;;;;;;;;;25.50;46.30;;;;;;4908042;29;19975;-90
2023/06/15 06:09:12;;;;;;;;;;;25.60;46.30;;;;;;4908358;29;19987;-90
2023/06/15 06:11:37;;;;;;;;;;;25.60;46.20;;;;;;4907724;29;20388;-90
2023/06/15 06:14:03;;;;;;;;;;;25.70;46.00;;;;;;4909194;29;19911;-90
2023/06/15 06:16:29;;;;;;;;;;;25.70;45.90;;;;;;4911906;29;19907;-90
2023/06/15 06:18:55;;;;;;;;;;;25.80;45.70;;;;;;4912025;29;20287;-90
2023/06/15 06:21:20;;;;;;;;;;;25.90;45.60;;;;;;4909132;29;19919;-90
2023/06/15 06:23:46;;;;;;;;;;;25.90;45.60;;;;;;4907876;29;19915;-90
2023/06/15 06:26:12;;;;;;;;;;;26.00;45.60;;;;;;4909063;29;19911;-90
2023/06/15 06:28:37;;;;;;;;;;;26.10;45.30;;;;;;4907601;29;19967;-90
2023/06/15 06:31:03;;;;;;;;;;;26.20;45.40;;;;;;4907197;29;19911;-90
2023/06/15 06:33:29;;;;;;;;;;;26.20;45.60;;;;;;4908477;29;19922;-90
2023/06/15 06:35:55;;;;;;;;;;;26.30;45.40;;;;;;4907783;29;20259;-90
2023/06/15 06:38:22;;;;;;;;;;;26.40;45.00;;;;;;4906950;29;19911;-90
2023/06/15 06:40:47;;;;;;;;;;;26.40;45.10;;;;;;4908759;29;19977;-90
2023/06/15 06:43:13;;;;;;;;;;;26.50;45.30;;;;;;4909419;29;20009;-90
2023/06/15 06:45:39;;;;;;;;;;;26.60;45.20;;;;;;4909111;29;19911;-90
2023/06/15 06:48:05;;;;;;;;;;;26.60;44.90;;;;;;4906447;29;20022;-90
2023/06/15 06:50:30;;;;;;;;;;;26.70;44.90;;;;;;4907733;29;20377;-90
2023/06/15 06:52:56;;;;;;;;;;;26.80;44.70;;;;;;4905724;29;20092;-90
2023/06/15 06:55:22;;;;;;;;;;;26.90;45.00;;;;;;4905674;29;19912;-90
2023/06/15 06:57:47;;;;;;;;;;;27.00;45.00;;;;;;4903941;29;20242;-90
2023/06/15 07:00:13;;;;;;;;;;;27.00;44.80;;;;;;4909660;29;19925;-90
2023/06/15 07:02:39;;;;;;;;;;;27.10;45.00;;;;;;4923777;29;19911;-90
2023/06/15 07:05:05;;;;;;;;;;;27.20;44.90;;;;;;4907465;29;20176;-90
2023/06/15 07:07:30;;;;;;;;;;;27.20;44.60;;;;;;4903770;29;20100;-90
2023/06/15 07:09:57;;;;;;;;;;;27.30;44.70;;;;;;4906190;29;20017;-90
2023/06/15 07:12:23;;;;;;;;;;;27.40;44.60;;;;;;4920184;29;19923;-90
2023/06/15 07:14:48;;;;;;;;;;;27.50;44.70;;;;;;4910945;29;20057;-90
2023/06/15 07:17:14;;;;;;;;;;;27.50;44.50;;;;;;4909548;29;20285;-90
2023/06/15 07:19:40;;;;;;;;;;;27.60;44.50;;;;;;4908247;29;19911;-90
2023/06/15 07:22:05;;;;;;;;;;;27.70;44.50;;;;;;4906098;29;20001;-91
2023/06/15 07:24:31;;;;;;;;;;;27.70;44.60;;;;;;4890934;29;19925;-90
2023/06/15 07:26:57;;;;;;;;;;;27.80;44.30;;;;;;4906816;29;19934;-90
2023/06/15 07:29:23;;;;;;;;;;;27.80;44.30;;;;;;4906551;29;19978;-90
2023/06/15 07:31:49;;;;;;;;;;;27.90;44.50;;;;;;4891035;29;20184;-90
2023/06/15 07:34:14;;;;;;;;;;;28.00;44.60;;;;;;4907803;29;19927;-90
2023/06/15 07:36:40;;;;;;;;;;;28.10;44.40;;;;;;4906252;29;19950;-90
2023/06/15 07:39:05;;;;;;;;;;;28.20;44.40;;;;;;4905953;29;20074;-90
2023/06/15 07:41:32;;;;;;;;;;;28.20;44.20;;;;;;4907836;29;20038;-90
2023/06/15 07:43:58;;;;;;;;;;;28.30;44.20;;;;;;4908311;29;19919;-90
2023/06/15 07:46:24;;;;;;;;;;;28.40;44.00;;;;;;4909548;29;19919;-90
2023/06/15 07:48:50;;;;;;;;;;;28.40;44.40;;;;;;4906951;29;19911;-90
2023/06/15 07:51:16;;;;;;;;;;;28.50;43.90;;;;;;4895270;29;19911;-90
2023/06/15 07:53:41;;;;;;;;;;;28.60;44.00;;;;;;4909535;29;20194;-90
2023/06/15 07:56:07;;;;;;;;;;;28.70;43.80;;;;;;4906447;29;20199;-91
2023/06/15 07:58:33;;;;;;;;;;;28.70;43.60;;;;;;4904595;29;19911;-90
2023/06/15 08:00:58;;;;;;;;;;;28.80;43.50;;;;;;4905334;29;19911;-90
2023/06/15 08:03:24;;;;;;;;;;;28.90;43.50;;;;;;4906343;29;20160;-90
2023/06/15 08:05:50;;;;;;;;;;;29.00;43.40;;;;;;4908838;29;19977;-90
2023/06/15 08:08:15;;;;;;;;;;;29.00;43.40;;;;;;4907121;29;20143;-90
2023/06/15 08:10:41;;;;;;;;;;;29.00;43.30;;;;;;4922671;29;20142;-90
2023/06/15 08:13:07;;;;;;;;;;;29.10;43.40;;;;;;4909343;29;20215;-91
2023/06/15 08:15:33;;;;;;;;;;;29.10;43.40;;;;;;4907256;29;19911;-90
2023/06/15 08:17:59;;;;;;;;;;;29.10;43.30;;;;;;4908112;29;20161;-90
2023/06/15 08:20:25;;;;;;;;;;;29.20;43.40;;;;;;4907196;29;20248;-91
2023/06/15 08:22:50;;;;;;;;;;;29.20;43.40;;;;;;4906641;29;19922;-91
2023/06/15 08:25:16;;;;;;;;;;;29.20;43.40;;;;;;4910763;29;20491;-91
2023/06/15 08:27:42;;;;;;;;;;;29.30;43.40;;;;;;4907710;29;20002;-90
2023/06/15 08:30:08;;;;;;;;;;;29.30;43.30;;;;;;4908902;29;20078;-91
2023/06/15 08:32:33;;;;;;;;;;;29.30;43.20;;;;;;4908409;29;19919;-90
2023/06/15 08:34:59;;;;;;;;;;;29.30;43.20;;;;;;4909265;29;20094;-90
2023/06/15 08:37:24;;;;;;;;;;;29.40;43.30;;;;;;4891736;29;19911;-90
2023/06/15 08:39:50;;;;;;;;;;;29.40;43.30;;;;;;4906703;29;20105;-90
2023/06/15 08:42:17;;;;;;;;;;;29.50;43.30;;;;;;4901883;29;19919;-90
2023/06/15 08:44:44;;;;;;;;;;;29.50;43.60;;;;;;4905689;29;19983;-90
2023/06/15 08:47:10;;;;;;;;;;;29.50;43.20;;;;;;4907328;29;19918;-90
2023/06/15 08:49:37;;;;;;;;;;;29.60;43.20;;;;;;4906542;29;19911;-90
2023/06/15 08:52:03;;;;;;;;;;;29.60;43.10;;;;;;4906152;29;19975;-91
2023/06/15 08:54:31;;;;;;;;;;;29.70;43.10;;;;;;4920071;29;19927;-90
2023/06/15 08:56:56;;;;;;;;;;;29.70;43.00;;;;;;4919367;29;20010;-91
2023/06/15 08:59:22;;;;;;;;;;;29.60;43.10;;;;;;4900191;29;20070;-91
2023/06/15 09:01:48;;;;;;;;;;;29.60;43.10;;;;;;4889899;29;20290;-91
2023/06/15 09:04:15;;;;;;;;;;;29.70;43.00;;;;;;4906223;29;19915;-91
2023/06/15 09:06:41;;;;;;;;;;;29.70;43.00;;;;;;4906064;29;19912;-90
2023/06/15 09:09:09;;;;;;;;;;;29.80;43.00;;;;;;4905123;29;19930;-90
2023/06/15 09:11:43;;;;;;;;;;;29.80;42.90;;;;;;4902867;29;19915;-90
2023/06/15 09:14:10;;;;;;;;;;;29.90;42.80;;;;;;4916462;29;19915;-91
2023/06/15 09:16:35;;;;;;;;;;;29.90;42.80;;;;;;4911386;29;19919;-91
2023/06/15 09:19:01;;;;;;;;;;;29.90;42.60;;;;;;4906770;29;19911;-91
2023/06/15 09:21:28;;;;;;;;;;;30.00;42.30;;;;;;4904812;29;20095;-90
2023/06/15 09:24:04;;;;;;;;;;;30.00;42.50;;;;;;4905795;29;19922;-91
2023/06/15 09:26:30;;;;;;;;;;;30.10;42.70;;;;;;4910311;29;20066;-91
2023/06/15 09:28:56;;;;;;;;;;;30.10;42.60;;;;;;4907962;29;20380;-91
2023/06/15 09:31:32;;;;;;;;;;;30.20;42.50;;;;;;4909049;29;19911;-91
2023/06/15 09:34:02;;;;;;;;;;;30.10;42.10;;;;;;4908513;29;20184;-91
2023/06/15 09:36:39;;;;;;;;;;;30.20;42.50;;;;;;4906514;29;20347;-92
2023/06/15 09:39:05;;;;;;;;;;;30.20;42.50;;;;;;4890694;29;19923;-91
2023/06/15 09:41:32;;;;;;;;;;;30.30;42.70;;;;;;4891963;29;19919;-91
2023/06/15 09:44:00;;;;;;;;;;;30.30;42.60;;;;;;4907753;29;19919;-91
2023/06/15 09:46:27;;;;;;;;;;;30.30;42.60;;;;;;4906481;29;20272;-91
2023/06/15 09:48:52;;;;;;;;;;;30.30;42.00;;;;;;4910218;29;20009;-91
2023/06/15 09:51:20;;;;;;;;;;;30.30;42.30;;;;;;4908383;29;20018;-91
2023/06/15 09:53:47;;;;;;;;;;;30.40;42.40;;;;;;4891202;29;20084;-91
2023/06/15 09:56:12;;;;;;;;;;;30.40;42.50;;;;;;4907164;29;20141;-93
2023/06/15 09:58:38;;;;;;;;;;;30.40;42.40;;;;;;4908131;29;19911;-92
2023/06/15 10:01:24;;;;;;;;;;;30.50;42.30;;;;;;4911988;23;20167;-69
2023/06/15 10:03:52;;;;;;;;;;;30.50;42.40;;;;;;4905945;29;19937;-69
2023/06/15 10:06:18;;;;;;;;;;;30.50;42.30;;;;;;4901392;29;19911;-69
2023/06/15 10:08:45;;;;;;;;;;;30.50;42.20;;;;;;4904937;29;19911;-69
2023/06/15 10:11:12;;;;;;;;;;;30.50;41.80;;;;;;4904928;29;20117;-69
2023/06/15 10:13:38;;;;;;;;;;;30.60;42.30;;;;;;4905124;29;19911;-69
2023/06/15 10:16:04;;;;;;;;;;;30.60;42.40;;;;;;4904353;29;20362;-69
2023/06/15 10:18:32;;;;;;;;;;;30.60;42.40;;;;;;4902652;29;19918;-69
2023/06/15 10:20:59;;;;;;;;;;;30.60;42.40;;;;;;4902122;29;20177;-70
2023/06/15 10:23:29;;;;;;;;;;;30.60;42.40;;;;;;4902490;29;19962;-70
2023/06/15 10:25:57;;;;;;;;;;;30.60;41.90;;;;;;4902672;29;19923;-70
2023/06/15 10:28:27;;;;;;;;;;;30.60;42.40;;;;;;4886829;29;19911;-70
2023/06/15 10:31:13;;;;;;;;;;;30.60;41.80;;;;;;4905878;29;20096;-70
2023/06/15 10:33:46;;;;;;;;;;;30.60;42.30;;;;;;4901010;29;19911;-70
2023/06/15 10:36:22;;;;;;;;;;;30.60;42.40;;;;;;4903422;29;19911;-70
2023/06/15 10:38:56;;;;;;;;;;;30.60;42.40;;;;;;4908893;29;19911;-70
2023/06/15 10:41:22;;;;;;;;;;;30.60;42.30;;;;;;4911515;29;19957;-70
2023/06/15 10:44:01;;;;;;;;;;;30.70;42.40;;;;;;4895554;29;20025;-70
2023/06/15 10:46:30;;;;;;;;;;;30.70;42.40;;;;;;4894534;29;19918;-70
2023/06/15 10:49:02;;;;;;;;;;;30.70;42.40;;;;;;4914205;29;19919;-69
2023/06/15 10:51:29;;;;;;;;;;;30.70;42.10;;;;;;4909301;29;20010;-70
2023/06/15 10:53:55;;;;;;;;;;;30.70;38.20;;;;;;4906270;29;20112;-70
2023/06/15 10:56:21;;;;;;;;;;;30.60;40.90;;;;;;4907639;29;19912;-69
2023/06/15 10:58:53;;;;;;;;;;;30.60;42.10;;;;;;4906143;29;19911;-70
2023/06/15 11:01:22;;;;;;;;;;;30.60;42.00;;;;;;4907612;29;19919;-70
2023/06/15 11:03:48;;;;;;;;;;;30.60;42.30;;;;;;4905542;29;19950;-70
2023/06/15 11:06:13;;;;;;;;;;;30.60;41.90;;;;;;4907113;29;19941;-69
2023/06/15 11:08:53;;;;;;;;;;;30.60;42.30;;;;;;4888753;29;19922;-69
2023/06/15 11:11:39;;;;;;;;;;;30.60;42.10;;;;;;4890018;29;19990;-69
2023/06/15 11:14:19;;;;;;;;;;;30.60;42.00;;;;;;4908521;29;19912;-69
2023/06/15 11:17:21;;;;;;;;;;;30.60;42.40;;;;;;4906705;29;19943;-69
2023/06/15 11:19:49;;;;;;;;;;;30.60;42.40;;;;;;4840292;29;19926;-69
2023/06/15 11:22:25;;;;;;;;;;;30.60;42.50;;;;;;4906325;29;20017;-70
2023/06/15 11:24:53;;;;;;;;;;;30.60;42.50;;;;;;4891279;29;19934;-69
2023/06/15 11:27:22;;;;;;;;;;;30.60;42.50;;;;;;4896835;29;19912;-69
2023/06/15 11:29:53;;;;;;;;;;;30.60;42.50;;;;;;4888727;29;19915;-70
2023/06/15 11:32:24;;;;;;;;;;;30.50;42.50;;;;;;4894617;29;19911;-69
2023/06/15 11:34:54;;;;;;;;;;;30.50;42.50;;;;;;4896329;29;20267;-71
2023/06/15 11:37:22;;;;;;;;;;;30.60;42.60;;;;;;4907819;29;19911;-70
2023/06/15 11:39:51;;;;;;;;;;;30.60;42.50;;;;;;4913191;29;19939;-68
2023/06/15 11:42:19;;;;;;;;;;;30.60;42.30;;;;;;4898606;29;20380;-69
2023/06/15 11:44:49;;;;;;;;;;;30.60;42.60;;;;;;4913114;29;20278;-70
2023/06/15 11:47:18;;;;;;;;;;;30.50;42.00;;;;;;4913457;29;19923;-69
2023/06/15 11:49:45;;;;;;;;;;;30.50;42.10;;;;;;4910005;29;19919;-69
2023/06/15 11:52:10;;;;;;;;;;;30.60;40.30;;;;;;4897174;29;20010;-69
2023/06/15 11:54:36;;;;;;;;;;;30.50;39.90;;;;;;4878104;29;20054;-69
2023/06/15 11:57:03;;;;;;;;;;;30.50;39.90;;;;;;4879926;29;20219;-70
2023/06/15 11:59:35;;;;;;;;;;;30.50;41.80;;;;;;4896578;29;19994;-68
2023/06/15 12:02:03;;;;;;;;;;;30.50;38.60;;;;;;4897946;29;20710;-69
2023/06/15 12:04:32;;;;;;;;;;;30.50;39.20;;;;;;4898479;29;20422;-69
2023/06/15 12:07:04;;;;;;;;;;;30.40;40.40;;;;;;4897138;29;19943;-70
2023/06/15 12:09:31;;;;;;;;;;;30.50;41.80;;;;;;4895943;29;19911;-70
2023/06/15 12:11:57;;;;;;;;;;;30.40;39.00;;;;;;4895421;29;20006;-69
2023/06/15 12:14:24;;;;;;;;;;;30.40;39.80;;;;;;4897148;29;19918;-69
2023/06/15 12:16:51;;;;;;;;;;;30.40;37.20;;;;;;4895793;29;19919;-69
2023/06/15 12:19:23;;;;;;;;;;;30.40;38.90;;;;;;4895028;29;19911;-70
2023/06/15 12:21:48;;;;;;;;;;;30.30;37.30;;;;;;4910011;29;19939;-68
2023/06/15 12:24:14;;;;;;;;;;;30.40;39.90;;;;;;4912646;29;20026;-69
2023/06/15 12:26:40;;;;;;;;;;;30.30;40.70;;;;;;4901809;29;19911;-69
2023/06/15 12:29:16;;;;;;;;;;;30.40;41.10;;;;;;4932807;29;19921;-69
2023/06/15 12:31:41;;;;;;;;;;;30.40;38.00;;;;;;4917606;29;19912;-69
2023/06/15 12:34:08;;;;;;;;;;;30.40;41.10;;;;;;4913934;29;20255;-69
2023/06/15 12:36:34;;;;;;;;;;;30.40;39.80;;;;;;4899335;29;19918;-69
2023/06/15 12:39:12;;;;;;;;;;;30.40;39.90;;;;;;4914390;29;19993;-69
2023/06/15 12:41:41;;;;;;;;;;;30.40;41.40;;;;;;4915448;29;20005;-70
2023/06/15 12:44:07;;;;;;;;;;;30.40;41.80;;;;;;4912751;29;19983;-69
2023/06/15 12:46:38;;;;;;;;;;;30.30;41.70;;;;;;4913745;29;19923;-69
2023/06/15 12:49:08;;;;;;;;;;;30.30;41.50;;;;;;4913810;29;20010;-69
2023/06/15 12:51:34;;;;;;;;;;;30.30;41.00;;;;;;4912275;29;20416;-70
2023/06/15 12:54:01;;;;;;;;;;;30.30;41.20;;;;;;4913751;29;19975;-70
2023/06/15 12:56:27;;;;;;;;;;;30.30;41.40;;;;;;4913236;29;19922;-70
2023/06/15 12:58:53;;;;;;;;;;;30.30;40.60;;;;;;4913154;29;19912;-70
2023/06/15 13:01:19;;;;;;;;;;;30.30;39.60;;;;;;4926518;29;19919;-70
2023/06/15 13:03:45;;;;;;;;;;;30.30;41.00;;;;;;4914530;29;19937;-70
2023/06/15 13:06:10;;;;;;;;;;;30.30;41.40;;;;;;4914446;29;19919;-70
2023/06/15 13:08:36;;;;;;;;;;;30.30;39.80;;;;;;4913709;29;20280;-70
2023/06/15 13:11:04;;;;;;;;;;;30.30;39.70;;;;;;4912745;29;19970;-70
2023/06/15 13:13:33;;;;;;;;;;;30.30;38.20;;;;;;4913706;29;19911;-70
2023/06/15 13:15:59;;;;;;;;;;;30.20;40.40;;;;;;4913875;29;20013;-70
2023/06/15 13:18:25;;;;;;;;;;;30.10;36.00;;;;;;4915149;29;20146;-70
2023/06/15 13:20:52;;;;;;;;;;;29.90;38.10;;;;;;4914013;29;20463;-70
2023/06/15 13:23:18;;;;;;;;;;;29.90;39.00;;;;;;4914997;29;19915;-70
2023/06/15 13:25:44;;;;;;;;;;;30.00;39.70;;;;;;4916581;29;19912;-70
2023/06/15 13:28:12;;;;;;;;;;;30.00;40.00;;;;;;4912759;29;19911;-70
2023/06/15 13:30:41;;;;;;;;;;;30.00;39.50;;;;;;4928738;29;20013;-70
2023/06/15 13:33:07;;;;;;;;;;;30.00;39.00;;;;;;4928161;29;19915;-70
2023/06/15 13:35:32;;;;;;;;;;;30.00;39.70;;;;;;4914158;29;19911;-70
2023/06/15 13:38:01;;;;;;;;;;;30.00;39.30;;;;;;4911104;29;20053;-70
2023/06/15 13:40:29;;;;;;;;;;;30.00;39.00;;;;;;4907994;29;19911;-70
2023/06/15 13:42:55;;;;;;;;;;;30.00;39.40;;;;;;4902127;29;20030;-70
2023/06/15 13:45:22;;;;;;;;;;;30.00;38.80;;;;;;4901861;29;19994;-70
2023/06/15 13:47:48;;;;;;;;;;;30.00;39.00;;;;;;4903190;29;20014;-70
2023/06/15 13:50:14;;;;;;;;;;;30.10;39.30;;;;;;4904751;29;19918;-69
2023/06/15 13:52:46;;;;;;;;;;;30.10;39.30;;;;;;4906506;29;19912;-70
2023/06/15 13:55:13;;;;;;;;;;;30.00;38.50;;;;;;4929613;29;19911;-70
2023/06/15 13:57:39;;;;;;;;;;;30.00;39.40;;;;;;4908344;29;19923;-70
2023/06/15 14:00:05;;;;;;;;;;;29.90;39.00;;;;;;4889803;29;19923;-70
2023/06/15 14:02:34;;;;;;;;;;;29.90;35.80;;;;;;4885896;29;19997;-69
2023/06/15 14:04:59;;;;;;;;;;;29.60;36.90;;;;;;4885094;29;19923;-70
2023/06/15 14:07:25;;;;;;;;;;;29.60;37.50;;;;;;4885974;29;19915;-70
2023/06/15 14:09:53;;;;;;;;;;;29.60;36.90;;;;;;4902986;29;19915;-69
2023/06/15 14:12:20;;;;;;;;;;;29.50;37.80;;;;;;4913194;29;19911;-70
2023/06/15 14:14:46;;;;;;;;;;;29.60;38.10;;;;;;4912227;29;20461;-69